sensor_id;sensor_type;location;lat;lon;timestamp;P1;durP1;ratioP1;P2;durP2;ratioP2
72728;SDS011;60843;52.062;4.508;2024-01-06T00:02:05;4.85;;;2.70;;
72728;SDS011;60843;52.062;4.508;2024-01-06T00:04:30;9.27;;;3.10;;
72728;SDS011;60843;52.062;4.508;2024-01-06T00:06:56;2.80;;;1.70;;
72728;SDS011;60843;52.062;4.508;2024-01-06T00:09:22;6.68;;;3.08;;
72728;SDS011;60843;52.062;4.508;2024-01-06T00:11:47;5.80;;;2.85;;
72728;SDS011;60843;52.062;4.508;2024-01-06T00:14:13;5.82;;;2.53;;
72728;SDS011;60843;52.062;4.508;2024-01-06T00:16:38;4.43;;;2.67;;
72728;SDS011;60843;52.062;4.508;2024-01-06T00:19:03;5.32;;;2.42;;
72728;SDS011;60843;52.062;4.508;2024-01-06T00:21:29;9.65;;;2.90;;
72728;SDS011;60843;52.062;4.508;2024-01-06T00:23:54;3.20;;;1.90;;
72728;SDS011;60843;52.062;4.508;2024-01-06T00:26:21;3.92;;;2.50;;
72728;SDS011;60843;52.062;4.508;2024-01-06T00:28:46;6.10;;;2.63;;
72728;SDS011;60843;52.062;4.508;2024-01-06T00:31:14;5.95;;;2.90;;
72728;SDS011;60843;52.062;4.508;2024-01-06T00:33:40;5.88;;;2.58;;
72728;SDS011;60843;52.062;4.508;2024-01-06T00:36:06;5.45;;;3.25;;
72728;SDS011;60843;52.062;4.508;2024-01-06T00:38:32;4.68;;;2.83;;
72728;SDS011;60843;52.062;4.508;2024-01-06T00:40:58;3.47;;;2.20;;
72728;SDS011;60843;52.062;4.508;2024-01-06T00:43:23;6.60;;;3.13;;
72728;SDS011;60843;52.062;4.508;2024-01-06T00:45:48;4.77;;;2.50;;
72728;SDS011;60843;52.062;4.508;2024-01-06T00:48:14;4.72;;;2.95;;
72728;SDS011;60843;52.062;4.508;2024-01-06T00:50:39;6.82;;;3.20;;
72728;SDS011;60843;52.062;4.508;2024-01-06T00:53:05;6.45;;;3.25;;
72728;SDS011;60843;52.062;4.508;2024-01-06T00:55:31;4.28;;;2.20;;
72728;SDS011;60843;52.062;4.508;2024-01-06T00:57:56;4.72;;;2.70;;
72728;SDS011;60843;52.062;4.508;2024-01-06T01:00:22;5.30;;;2.67;;
72728;SDS011;60843;52.062;4.508;2024-01-06T01:02:48;5.55;;;2.83;;
72728;SDS011;60843;52.062;4.508;2024-01-06T01:05:13;6.10;;;2.30;;
72728;SDS011;60843;52.062;4.508;2024-01-06T01:07:39;6.15;;;2.55;;
72728;SDS011;60843;52.062;4.508;2024-01-06T01:10:04;7.80;;;2.67;;
72728;SDS011;60843;52.062;4.508;2024-01-06T01:12:30;9.63;;;2.75;;
72728;SDS011;60843;52.062;4.508;2024-01-06T01:14:56;3.30;;;1.77;;
72728;SDS011;60843;52.062;4.508;2024-01-06T01:17:21;4.93;;;3.00;;
72728;SDS011;60843;52.062;4.508;2024-01-06T01:19:47;6.55;;;2.70;;
72728;SDS011;60843;52.062;4.508;2024-01-06T01:22:12;3.63;;;2.17;;
72728;SDS011;60843;52.062;4.508;2024-01-06T01:24:38;4.28;;;2.58;;
72728;SDS011;60843;52.062;4.508;2024-01-06T01:27:04;3.05;;;1.88;;
72728;SDS011;60843;52.062;4.508;2024-01-06T01:29:29;5.43;;;2.28;;
72728;SDS011;60843;52.062;4.508;2024-01-06T01:31:55;5.70;;;2.28;;
72728;SDS011;60843;52.062;4.508;2024-01-06T01:34:21;3.97;;;1.52;;
72728;SDS011;60843;52.062;4.508;2024-01-06T01:36:46;3.37;;;1.50;;
72728;SDS011;60843;52.062;4.508;2024-01-06T01:39:11;3.08;;;1.52;;
72728;SDS011;60843;52.062;4.508;2024-01-06T01:41:37;4.73;;;1.80;;
72728;SDS011;60843;52.062;4.508;2024-01-06T01:44:02;2.83;;;0.98;;
72728;SDS011;60843;52.062;4.508;2024-01-06T01:46:28;2.97;;;0.95;;
72728;SDS011;60843;52.062;4.508;2024-01-06T01:48:55;2.95;;;1.75;;
72728;SDS011;60843;52.062;4.508;2024-01-06T01:51:21;3.80;;;1.30;;
72728;SDS011;60843;52.062;4.508;2024-01-06T01:53:47;3.03;;;1.42;;
72728;SDS011;60843;52.062;4.508;2024-01-06T01:56:12;7.28;;;0.82;;
72728;SDS011;60843;52.062;4.508;2024-01-06T01:58:38;1.50;;;0.50;;
72728;SDS011;60843;52.062;4.508;2024-01-06T02:01:04;1.65;;;0.63;;
72728;SDS011;60843;52.062;4.508;2024-01-06T02:03:30;1.53;;;0.90;;
72728;SDS011;60843;52.062;4.508;2024-01-06T02:05:56;1.40;;;0.77;;
72728;SDS011;60843;52.062;4.508;2024-01-06T02:08:21;2.97;;;1.10;;
72728;SDS011;60843;52.062;4.508;2024-01-06T02:10:47;1.15;;;0.77;;
72728;SDS011;60843;52.062;4.508;2024-01-06T02:13:15;2.35;;;1.27;;
72728;SDS011;60843;52.062;4.508;2024-01-06T02:15:40;1.25;;;0.82;;
72728;SDS011;60843;52.062;4.508;2024-01-06T02:18:06;4.07;;;1.55;;
72728;SDS011;60843;52.062;4.508;2024-01-06T02:20:31;0.93;;;0.60;;
72728;SDS011;60843;52.062;4.508;2024-01-06T02:22:57;0.40;;;0.40;;
72728;SDS011;60843;52.062;4.508;2024-01-06T02:25:24;1.17;;;1.00;;
72728;SDS011;60843;52.062;4.508;2024-01-06T02:27:49;3.20;;;1.10;;
72728;SDS011;60843;52.062;4.508;2024-01-06T02:30:15;3.90;;;2.17;;
72728;SDS011;60843;52.062;4.508;2024-01-06T02:32:40;4.15;;;1.55;;
72728;SDS011;60843;52.062;4.508;2024-01-06T02:35:06;4.57;;;1.77;;
72728;SDS011;60843;52.062;4.508;2024-01-06T02:37:32;3.22;;;1.92;;
72728;SDS011;60843;52.062;4.508;2024-01-06T02:39:57;2.67;;;1.20;;
72728;SDS011;60843;52.062;4.508;2024-01-06T02:42:22;3.80;;;1.80;;
72728;SDS011;60843;52.062;4.508;2024-01-06T02:44:49;4.65;;;1.85;;
72728;SDS011;60843;52.062;4.508;2024-01-06T02:47:14;3.97;;;2.40;;
72728;SDS011;60843;52.062;4.508;2024-01-06T02:49:40;7.72;;;2.53;;
72728;SDS011;60843;52.062;4.508;2024-01-06T02:52:05;5.28;;;2.58;;
72728;SDS011;60843;52.062;4.508;2024-01-06T02:54:31;5.15;;;1.90;;
72728;SDS011;60843;52.062;4.508;2024-01-06T02:56:56;2.17;;;1.45;;
72728;SDS011;60843;52.062;4.508;2024-01-06T02:59:22;3.40;;;2.17;;
72728;SDS011;60843;52.062;4.508;2024-01-06T03:01:47;3.22;;;2.03;;
72728;SDS011;60843;52.062;4.508;2024-01-06T03:04:13;2.90;;;1.80;;
72728;SDS011;60843;52.062;4.508;2024-01-06T03:06:38;3.50;;;1.43;;
72728;SDS011;60843;52.062;4.508;2024-01-06T03:09:03;4.27;;;2.60;;
72728;SDS011;60843;52.062;4.508;2024-01-06T03:11:29;5.13;;;2.60;;
72728;SDS011;60843;52.062;4.508;2024-01-06T03:13:54;3.53;;;1.50;;
72728;SDS011;60843;52.062;4.508;2024-01-06T03:16:19;3.23;;;1.67;;
72728;SDS011;60843;52.062;4.508;2024-01-06T03:18:45;1.80;;;1.02;;
72728;SDS011;60843;52.062;4.508;2024-01-06T03:21:20;1.50;;;1.27;;
72728;SDS011;60843;52.062;4.508;2024-01-06T03:23:46;3.90;;;1.55;;
72728;SDS011;60843;52.062;4.508;2024-01-06T03:26:13;1.30;;;1.02;;
72728;SDS011;60843;52.062;4.508;2024-01-06T03:28:38;1.80;;;1.20;;
72728;SDS011;60843;52.062;4.508;2024-01-06T03:31:04;1.10;;;0.82;;
72728;SDS011;60843;52.062;4.508;2024-01-06T03:33:29;2.13;;;1.30;;
72728;SDS011;60843;52.062;4.508;2024-01-06T03:35:55;7.10;;;1.85;;
72728;SDS011;60843;52.062;4.508;2024-01-06T03:38:20;3.72;;;1.73;;
72728;SDS011;60843;52.062;4.508;2024-01-06T03:40:46;5.13;;;1.73;;
72728;SDS011;60843;52.062;4.508;2024-01-06T03:43:11;2.00;;;1.10;;
72728;SDS011;60843;52.062;4.508;2024-01-06T03:45:36;1.67;;;1.27;;
72728;SDS011;60843;52.062;4.508;2024-01-06T03:48:02;3.47;;;2.05;;
72728;SDS011;60843;52.062;4.508;2024-01-06T03:50:27;3.22;;;1.52;;
72728;SDS011;60843;52.062;4.508;2024-01-06T03:52:53;3.50;;;1.35;;
72728;SDS011;60843;52.062;4.508;2024-01-06T03:55:18;2.20;;;1.58;;
72728;SDS011;60843;52.062;4.508;2024-01-06T03:57:43;1.90;;;1.30;;
72728;SDS011;60843;52.062;4.508;2024-01-06T04:00:09;2.67;;;1.60;;
72728;SDS011;60843;52.062;4.508;2024-01-06T04:02:35;3.15;;;1.42;;
72728;SDS011;60843;52.062;4.508;2024-01-06T04:05:00;5.60;;;1.70;;
72728;SDS011;60843;52.062;4.508;2024-01-06T04:07:25;1.40;;;1.00;;
72728;SDS011;60843;52.062;4.508;2024-01-06T04:09:51;8.23;;;2.80;;
72728;SDS011;60843;52.062;4.508;2024-01-06T04:12:17;4.13;;;1.60;;
72728;SDS011;60843;52.062;4.508;2024-01-06T04:14:42;4.20;;;1.77;;
72728;SDS011;60843;52.062;4.508;2024-01-06T04:17:08;4.63;;;1.50;;
72728;SDS011;60843;52.062;4.508;2024-01-06T04:19:33;2.00;;;0.83;;
72728;SDS011;60843;52.062;4.508;2024-01-06T04:21:59;3.40;;;1.90;;
72728;SDS011;60843;52.062;4.508;2024-01-06T04:24:25;2.60;;;1.50;;
72728;SDS011;60843;52.062;4.508;2024-01-06T04:26:50;2.78;;;1.90;;
72728;SDS011;60843;52.062;4.508;2024-01-06T04:29:16;4.88;;;2.08;;
72728;SDS011;60843;52.062;4.508;2024-01-06T04:31:41;2.77;;;1.47;;
72728;SDS011;60843;52.062;4.508;2024-01-06T04:34:06;6.50;;;2.47;;
72728;SDS011;60843;52.062;4.508;2024-01-06T04:36:32;4.87;;;1.93;;
72728;SDS011;60843;52.062;4.508;2024-01-06T04:38:57;3.08;;;1.50;;
72728;SDS011;60843;52.062;4.508;2024-01-06T04:41:22;3.15;;;1.70;;
72728;SDS011;60843;52.062;4.508;2024-01-06T04:43:48;3.03;;;1.92;;
72728;SDS011;60843;52.062;4.508;2024-01-06T04:46:13;3.15;;;1.33;;
72728;SDS011;60843;52.062;4.508;2024-01-06T04:48:40;1.50;;;0.98;;
72728;SDS011;60843;52.062;4.508;2024-01-06T04:51:06;2.50;;;1.85;;
72728;SDS011;60843;52.062;4.508;2024-01-06T04:56:00;2.78;;;1.20;;
72728;SDS011;60843;52.062;4.508;2024-01-06T04:58:25;1.90;;;1.17;;
72728;SDS011;60843;52.062;4.508;2024-01-06T05:00:51;1.53;;;1.13;;
72728;SDS011;60843;52.062;4.508;2024-01-06T05:03:17;1.63;;;1.02;;
72728;SDS011;60843;52.062;4.508;2024-01-06T05:05:43;1.70;;;0.90;;
72728;SDS011;60843;52.062;4.508;2024-01-06T05:08:08;4.53;;;1.70;;
72728;SDS011;60843;52.062;4.508;2024-01-06T05:10:34;1.65;;;1.08;;
72728;SDS011;60843;52.062;4.508;2024-01-06T05:12:59;6.43;;;1.50;;
72728;SDS011;60843;52.062;4.508;2024-01-06T05:15:25;2.65;;;1.00;;
72728;SDS011;60843;52.062;4.508;2024-01-06T05:17:50;1.67;;;0.87;;
72728;SDS011;60843;52.062;4.508;2024-01-06T05:20:16;5.00;;;1.08;;
72728;SDS011;60843;52.062;4.508;2024-01-06T05:22:41;2.20;;;1.23;;
72728;SDS011;60843;52.062;4.508;2024-01-06T05:25:06;2.30;;;1.13;;
72728;SDS011;60843;52.062;4.508;2024-01-06T05:27:32;1.30;;;0.57;;
72728;SDS011;60843;52.062;4.508;2024-01-06T05:29:57;1.83;;;0.85;;
72728;SDS011;60843;52.062;4.508;2024-01-06T05:32:23;1.40;;;1.07;;
72728;SDS011;60843;52.062;4.508;2024-01-06T05:34:48;2.33;;;1.17;;
72728;SDS011;60843;52.062;4.508;2024-01-06T05:37:14;1.60;;;1.05;;
72728;SDS011;60843;52.062;4.508;2024-01-06T05:39:39;1.92;;;0.93;;
72728;SDS011;60843;52.062;4.508;2024-01-06T05:42:05;1.73;;;0.93;;
72728;SDS011;60843;52.062;4.508;2024-01-06T05:44:31;2.00;;;0.98;;
72728;SDS011;60843;52.062;4.508;2024-01-06T05:46:56;0.83;;;0.60;;
72728;SDS011;60843;52.062;4.508;2024-01-06T05:49:22;0.63;;;0.38;;
72728;SDS011;60843;52.062;4.508;2024-01-06T05:51:48;1.00;;;0.65;;
72728;SDS011;60843;52.062;4.508;2024-01-06T05:54:14;1.83;;;0.70;;
72728;SDS011;60843;52.062;4.508;2024-01-06T05:56:39;3.70;;;1.10;;
72728;SDS011;60843;52.062;4.508;2024-01-06T05:59:05;0.82;;;0.70;;
72728;SDS011;60843;52.062;4.508;2024-01-06T06:01:30;1.33;;;0.52;;
72728;SDS011;60843;52.062;4.508;2024-01-06T06:03:56;0.82;;;0.60;;
72728;SDS011;60843;52.062;4.508;2024-01-06T06:06:21;2.08;;;0.90;;
72728;SDS011;60843;52.062;4.508;2024-01-06T06:08:46;7.30;;;1.50;;
72728;SDS011;60843;52.062;4.508;2024-01-06T06:11:13;1.88;;;1.08;;
72728;SDS011;60843;52.062;4.508;2024-01-06T06:13:42;2.03;;;0.90;;
72728;SDS011;60843;52.062;4.508;2024-01-06T06:16:11;1.40;;;0.85;;
72728;SDS011;60843;52.062;4.508;2024-01-06T06:18:40;0.70;;;0.45;;
72728;SDS011;60843;52.062;4.508;2024-01-06T06:21:06;3.13;;;1.30;;
72728;SDS011;60843;52.062;4.508;2024-01-06T06:23:32;1.65;;;0.82;;
72728;SDS011;60843;52.062;4.508;2024-01-06T06:25:58;2.22;;;1.02;;
72728;SDS011;60843;52.062;4.508;2024-01-06T06:28:24;1.73;;;0.85;;
72728;SDS011;60843;52.062;4.508;2024-01-06T06:30:50;1.77;;;0.77;;
72728;SDS011;60843;52.062;4.508;2024-01-06T06:33:16;1.38;;;1.13;;
72728;SDS011;60843;52.062;4.508;2024-01-06T06:35:42;6.00;;;1.73;;
72728;SDS011;60843;52.062;4.508;2024-01-06T06:38:07;1.80;;;0.70;;
72728;SDS011;60843;52.062;4.508;2024-01-06T06:40:33;1.75;;;0.85;;
72728;SDS011;60843;52.062;4.508;2024-01-06T06:42:58;1.20;;;0.73;;
72728;SDS011;60843;52.062;4.508;2024-01-06T06:45:23;2.70;;;1.40;;
72728;SDS011;60843;52.062;4.508;2024-01-06T06:47:49;3.25;;;1.85;;
72728;SDS011;60843;52.062;4.508;2024-01-06T06:50:15;2.03;;;1.45;;
72728;SDS011;60843;52.062;4.508;2024-01-06T06:52:45;1.98;;;1.23;;
72728;SDS011;60843;52.062;4.508;2024-01-06T06:55:11;5.10;;;2.00;;
72728;SDS011;60843;52.062;4.508;2024-01-06T06:57:36;3.55;;;1.45;;
72728;SDS011;60843;52.062;4.508;2024-01-06T07:00:03;0.73;;;0.60;;
72728;SDS011;60843;52.062;4.508;2024-01-06T07:02:29;3.30;;;1.30;;
72728;SDS011;60843;52.062;4.508;2024-01-06T07:04:54;2.77;;;1.53;;
72728;SDS011;60843;52.062;4.508;2024-01-06T07:07:20;1.83;;;1.10;;
72728;SDS011;60843;52.062;4.508;2024-01-06T07:09:45;2.42;;;0.77;;
72728;SDS011;60843;52.062;4.508;2024-01-06T07:12:10;2.20;;;1.23;;
72728;SDS011;60843;52.062;4.508;2024-01-06T07:14:36;2.08;;;1.30;;
72728;SDS011;60843;52.062;4.508;2024-01-06T07:17:04;1.83;;;1.20;;
72728;SDS011;60843;52.062;4.508;2024-01-06T07:19:31;0.88;;;0.73;;
72728;SDS011;60843;52.062;4.508;2024-01-06T07:21:57;2.28;;;0.90;;
72728;SDS011;60843;52.062;4.508;2024-01-06T07:24:22;1.97;;;1.27;;
72728;SDS011;60843;52.062;4.508;2024-01-06T07:26:48;3.50;;;1.50;;
72728;SDS011;60843;52.062;4.508;2024-01-06T07:29:13;3.88;;;1.33;;
72728;SDS011;60843;52.062;4.508;2024-01-06T07:31:39;5.57;;;1.10;;
72728;SDS011;60843;52.062;4.508;2024-01-06T07:34:04;4.27;;;2.23;;
72728;SDS011;60843;52.062;4.508;2024-01-06T07:36:31;4.43;;;1.30;;
72728;SDS011;60843;52.062;4.508;2024-01-06T07:38:56;2.30;;;1.13;;
72728;SDS011;60843;52.062;4.508;2024-01-06T07:41:22;1.77;;;1.02;;
72728;SDS011;60843;52.062;4.508;2024-01-06T07:43:47;7.60;;;1.73;;
72728;SDS011;60843;52.062;4.508;2024-01-06T07:46:13;6.47;;;1.05;;
72728;SDS011;60843;52.062;4.508;2024-01-06T07:48:38;3.10;;;1.42;;
72728;SDS011;60843;52.062;4.508;2024-01-06T07:51:04;2.72;;;1.48;;
72728;SDS011;60843;52.062;4.508;2024-01-06T07:53:30;1.77;;;1.00;;
72728;SDS011;60843;52.062;4.508;2024-01-06T07:55:55;3.03;;;1.33;;
72728;SDS011;60843;52.062;4.508;2024-01-06T07:58:21;0.95;;;0.60;;
72728;SDS011;60843;52.062;4.508;2024-01-06T08:00:46;1.77;;;0.68;;
72728;SDS011;60843;52.062;4.508;2024-01-06T08:03:12;3.33;;;1.35;;
72728;SDS011;60843;52.062;4.508;2024-01-06T08:05:38;2.17;;;1.23;;
72728;SDS011;60843;52.062;4.508;2024-01-06T08:08:04;3.75;;;1.17;;
72728;SDS011;60843;52.062;4.508;2024-01-06T08:10:30;2.75;;;0.98;;
72728;SDS011;60843;52.062;4.508;2024-01-06T08:12:56;1.05;;;0.60;;
72728;SDS011;60843;52.062;4.508;2024-01-06T08:15:21;1.52;;;0.88;;
72728;SDS011;60843;52.062;4.508;2024-01-06T08:17:47;2.00;;;0.90;;
72728;SDS011;60843;52.062;4.508;2024-01-06T08:20:13;1.33;;;0.85;;
72728;SDS011;60843;52.062;4.508;2024-01-06T08:22:38;2.45;;;1.20;;
72728;SDS011;60843;52.062;4.508;2024-01-06T08:25:04;0.88;;;0.63;;
72728;SDS011;60843;52.062;4.508;2024-01-06T08:27:31;1.60;;;0.85;;
72728;SDS011;60843;52.062;4.508;2024-01-06T08:29:56;3.35;;;1.38;;
72728;SDS011;60843;52.062;4.508;2024-01-06T08:32:22;2.42;;;1.23;;
72728;SDS011;60843;52.062;4.508;2024-01-06T08:34:48;5.18;;;1.42;;
72728;SDS011;60843;52.062;4.508;2024-01-06T08:37:13;6.00;;;1.60;;
72728;SDS011;60843;52.062;4.508;2024-01-06T08:39:39;2.85;;;1.20;;
72728;SDS011;60843;52.062;4.508;2024-01-06T08:42:04;4.10;;;1.13;;
72728;SDS011;60843;52.062;4.508;2024-01-06T08:44:30;4.95;;;0.90;;
72728;SDS011;60843;52.062;4.508;2024-01-06T08:46:55;2.10;;;1.33;;
72728;SDS011;60843;52.062;4.508;2024-01-06T08:49:21;3.28;;;1.58;;
72728;SDS011;60843;52.062;4.508;2024-01-06T08:51:46;2.20;;;1.13;;
72728;SDS011;60843;52.062;4.508;2024-01-06T08:54:12;3.30;;;0.93;;
72728;SDS011;60843;52.062;4.508;2024-01-06T08:56:38;3.13;;;1.02;;
72728;SDS011;60843;52.062;4.508;2024-01-06T08:59:03;3.28;;;1.17;;
72728;SDS011;60843;52.062;4.508;2024-01-06T09:01:29;1.60;;;0.73;;
72728;SDS011;60843;52.062;4.508;2024-01-06T09:03:54;1.27;;;0.73;;
72728;SDS011;60843;52.062;4.508;2024-01-06T09:06:19;1.13;;;0.70;;
72728;SDS011;60843;52.062;4.508;2024-01-06T09:08:45;1.52;;;0.63;;
72728;SDS011;60843;52.062;4.508;2024-01-06T09:11:10;1.40;;;0.60;;
72728;SDS011;60843;52.062;4.508;2024-01-06T09:13:36;2.83;;;1.02;;
72728;SDS011;60843;52.062;4.508;2024-01-06T09:16:01;1.58;;;1.00;;
72728;SDS011;60843;52.062;4.508;2024-01-06T09:18:27;1.75;;;1.08;;
72728;SDS011;60843;52.062;4.508;2024-01-06T09:20:52;1.05;;;0.75;;
72728;SDS011;60843;52.062;4.508;2024-01-06T09:23:19;2.55;;;1.08;;
72728;SDS011;60843;52.062;4.508;2024-01-06T09:25:45;2.65;;;1.15;;
72728;SDS011;60843;52.062;4.508;2024-01-06T09:28:13;2.00;;;0.93;;
72728;SDS011;60843;52.062;4.508;2024-01-06T09:30:38;2.03;;;1.23;;
72728;SDS011;60843;52.062;4.508;2024-01-06T09:33:04;0.60;;;0.45;;
72728;SDS011;60843;52.062;4.508;2024-01-06T09:35:29;1.58;;;0.90;;
72728;SDS011;60843;52.062;4.508;2024-01-06T09:37:55;1.92;;;1.08;;
72728;SDS011;60843;52.062;4.508;2024-01-06T09:40:21;3.40;;;1.08;;
72728;SDS011;60843;52.062;4.508;2024-01-06T09:42:48;6.57;;;1.35;;
72728;SDS011;60843;52.062;4.508;2024-01-06T09:45:14;1.40;;;0.65;;
72728;SDS011;60843;52.062;4.508;2024-01-06T09:47:40;0.70;;;0.40;;
72728;SDS011;60843;52.062;4.508;2024-01-06T09:50:06;1.17;;;0.77;;
72728;SDS011;60843;52.062;4.508;2024-01-06T09:52:34;1.15;;;0.65;;
72728;SDS011;60843;52.062;4.508;2024-01-06T09:55:05;1.08;;;0.70;;
72728;SDS011;60843;52.062;4.508;2024-01-06T09:57:35;1.60;;;0.60;;
72728;SDS011;60843;52.062;4.508;2024-01-06T10:00:01;0.77;;;0.32;;
72728;SDS011;60843;52.062;4.508;2024-01-06T10:02:27;0.98;;;0.60;;
72728;SDS011;60843;52.062;4.508;2024-01-06T10:04:52;1.90;;;1.10;;
72728;SDS011;60843;52.062;4.508;2024-01-06T10:07:18;2.00;;;0.93;;
72728;SDS011;60843;52.062;4.508;2024-01-06T10:09:43;1.13;;;0.60;;
72728;SDS011;60843;52.062;4.508;2024-01-06T10:12:09;2.70;;;0.87;;
72728;SDS011;60843;52.062;4.508;2024-01-06T10:14:35;4.60;;;1.23;;
72728;SDS011;60843;52.062;4.508;2024-01-06T10:17:01;1.38;;;0.60;;
72728;SDS011;60843;52.062;4.508;2024-01-06T10:19:26;3.70;;;1.10;;
72728;SDS011;60843;52.062;4.508;2024-01-06T10:21:52;0.98;;;0.70;;
72728;SDS011;60843;52.062;4.508;2024-01-06T10:24:18;1.13;;;0.80;;
72728;SDS011;60843;52.062;4.508;2024-01-06T10:26:46;2.63;;;1.10;;
72728;SDS011;60843;52.062;4.508;2024-01-06T10:29:15;1.52;;;0.88;;
72728;SDS011;60843;52.062;4.508;2024-01-06T10:31:40;1.33;;;0.90;;
72728;SDS011;60843;52.062;4.508;2024-01-06T10:34:06;1.65;;;0.95;;
72728;SDS011;60843;52.062;4.508;2024-01-06T10:36:31;0.90;;;0.60;;
72728;SDS011;60843;52.062;4.508;2024-01-06T10:38:57;3.13;;;0.70;;
72728;SDS011;60843;52.062;4.508;2024-01-06T10:41:22;2.28;;;1.23;;
72728;SDS011;60843;52.062;4.508;2024-01-06T10:43:50;0.95;;;0.50;;
72728;SDS011;60843;52.062;4.508;2024-01-06T10:46:16;3.13;;;1.00;;
72728;SDS011;60843;52.062;4.508;2024-01-06T10:48:43;1.77;;;0.90;;
72728;SDS011;60843;52.062;4.508;2024-01-06T10:51:11;1.25;;;0.60;;
72728;SDS011;60843;52.062;4.508;2024-01-06T10:53:38;1.42;;;0.85;;
72728;SDS011;60843;52.062;4.508;2024-01-06T10:56:06;1.50;;;0.80;;
72728;SDS011;60843;52.062;4.508;2024-01-06T10:58:35;1.38;;;0.82;;
72728;SDS011;60843;52.062;4.508;2024-01-06T11:01:07;2.72;;;1.20;;
72728;SDS011;60843;52.062;4.508;2024-01-06T11:03:33;1.35;;;0.88;;
72728;SDS011;60843;52.062;4.508;2024-01-06T11:06:04;3.53;;;1.17;;
72728;SDS011;60843;52.062;4.508;2024-01-06T11:08:36;1.58;;;1.00;;
72728;SDS011;60843;52.062;4.508;2024-01-06T11:11:14;2.60;;;1.50;;
72728;SDS011;60843;52.062;4.508;2024-01-06T11:13:41;4.10;;;1.33;;
72728;SDS011;60843;52.062;4.508;2024-01-06T11:16:08;2.67;;;1.40;;
72728;SDS011;60843;52.062;4.508;2024-01-06T11:18:36;1.20;;;0.90;;
72728;SDS011;60843;52.062;4.508;2024-01-06T11:21:16;2.78;;;1.48;;
72728;SDS011;60843;52.062;4.508;2024-01-06T11:23:43;3.38;;;1.05;;
72728;SDS011;60843;52.062;4.508;2024-01-06T11:26:08;2.28;;;1.52;;
72728;SDS011;60843;52.062;4.508;2024-01-06T11:28:46;1.38;;;0.57;;
72728;SDS011;60843;52.062;4.508;2024-01-06T11:31:12;1.88;;;1.20;;
72728;SDS011;60843;52.062;4.508;2024-01-06T11:33:42;1.13;;;0.75;;
72728;SDS011;60843;52.062;4.508;2024-01-06T11:36:14;2.47;;;1.23;;
72728;SDS011;60843;52.062;4.508;2024-01-06T11:38:39;2.42;;;1.30;;
72728;SDS011;60843;52.062;4.508;2024-01-06T11:41:08;1.98;;;1.45;;
72728;SDS011;60843;52.062;4.508;2024-01-06T11:43:37;0.52;;;0.35;;
72728;SDS011;60843;52.062;4.508;2024-01-06T11:46:04;1.65;;;0.90;;
72728;SDS011;60843;52.062;4.508;2024-01-06T11:48:31;2.75;;;1.42;;
72728;SDS011;60843;52.062;4.508;2024-01-06T11:50:58;4.35;;;1.23;;
72728;SDS011;60843;52.062;4.508;2024-01-06T11:53:24;2.17;;;1.30;;
72728;SDS011;60843;52.062;4.508;2024-01-06T11:55:53;4.50;;;1.30;;
72728;SDS011;60843;52.062;4.508;2024-01-06T11:58:19;4.18;;;1.67;;
72728;SDS011;60843;52.062;4.508;2024-01-06T12:00:45;2.83;;;1.00;;
72728;SDS011;60843;52.062;4.508;2024-01-06T12:03:20;0.80;;;0.50;;
72728;SDS011;60843;52.062;4.508;2024-01-06T12:05:45;3.57;;;1.03;;
72728;SDS011;60843;52.062;4.508;2024-01-06T12:08:11;2.25;;;0.93;;
72728;SDS011;60843;52.062;4.508;2024-01-06T12:10:36;1.35;;;0.35;;
72728;SDS011;60843;52.062;4.508;2024-01-06T12:13:02;1.15;;;0.73;;
72728;SDS011;60843;52.062;4.508;2024-01-06T12:15:30;1.35;;;0.88;;
72728;SDS011;60843;52.062;4.508;2024-01-06T12:17:56;2.05;;;0.70;;
72728;SDS011;60843;52.062;4.508;2024-01-06T12:20:23;4.07;;;0.90;;
72728;SDS011;60843;52.062;4.508;2024-01-06T12:22:50;3.22;;;1.13;;
72728;SDS011;60843;52.062;4.508;2024-01-06T12:25:16;3.25;;;0.85;;
72728;SDS011;60843;52.062;4.508;2024-01-06T12:27:42;1.77;;;1.23;;
72728;SDS011;60843;52.062;4.508;2024-01-06T12:30:12;1.08;;;0.75;;
72728;SDS011;60843;52.062;4.508;2024-01-06T12:32:42;4.85;;;0.88;;
72728;SDS011;60843;52.062;4.508;2024-01-06T12:35:09;2.60;;;0.80;;
72728;SDS011;60843;52.062;4.508;2024-01-06T12:37:35;3.53;;;1.20;;
72728;SDS011;60843;52.062;4.508;2024-01-06T12:40:01;1.95;;;1.08;;
72728;SDS011;60843;52.062;4.508;2024-01-06T12:42:27;3.03;;;1.13;;
72728;SDS011;60843;52.062;4.508;2024-01-06T12:44:52;0.90;;;0.60;;
72728;SDS011;60843;52.062;4.508;2024-01-06T12:47:17;4.93;;;1.40;;
72728;SDS011;60843;52.062;4.508;2024-01-06T12:49:43;3.70;;;1.10;;
72728;SDS011;60843;52.062;4.508;2024-01-06T12:52:09;1.30;;;0.90;;
72728;SDS011;60843;52.062;4.508;2024-01-06T12:54:34;6.22;;;1.40;;
72728;SDS011;60843;52.062;4.508;2024-01-06T12:57:00;2.33;;;1.08;;
72728;SDS011;60843;52.062;4.508;2024-01-06T12:59:25;2.88;;;1.25;;
72728;SDS011;60843;52.062;4.508;2024-01-06T13:01:50;1.43;;;0.70;;
72728;SDS011;60843;52.062;4.508;2024-01-06T13:04:16;2.95;;;0.85;;
72728;SDS011;60843;52.062;4.508;2024-01-06T13:06:42;1.65;;;1.08;;
72728;SDS011;60843;52.062;4.508;2024-01-06T13:09:07;1.00;;;0.70;;
72728;SDS011;60843;52.062;4.508;2024-01-06T13:11:35;0.73;;;0.43;;
72728;SDS011;60843;52.062;4.508;2024-01-06T13:14:01;0.70;;;0.52;;
72728;SDS011;60843;52.062;4.508;2024-01-06T13:16:26;0.20;;;0.20;;
72728;SDS011;60843;52.062;4.508;2024-01-06T13:18:52;1.27;;;0.63;;
72728;SDS011;60843;52.062;4.508;2024-01-06T13:21:17;1.10;;;0.63;;
72728;SDS011;60843;52.062;4.508;2024-01-06T13:23:43;4.50;;;0.95;;
72728;SDS011;60843;52.062;4.508;2024-01-06T13:26:08;3.78;;;1.27;;
72728;SDS011;60843;52.062;4.508;2024-01-06T13:28:34;1.15;;;1.05;;
72728;SDS011;60843;52.062;4.508;2024-01-06T13:31:00;1.25;;;0.73;;
72728;SDS011;60843;52.062;4.508;2024-01-06T13:33:25;0.90;;;0.60;;
72728;SDS011;60843;52.062;4.508;2024-01-06T13:35:51;1.15;;;0.75;;
72728;SDS011;60843;52.062;4.508;2024-01-06T13:38:16;0.77;;;0.47;;
72728;SDS011;60843;52.062;4.508;2024-01-06T13:40:42;0.80;;;0.50;;
72728;SDS011;60843;52.062;4.508;2024-01-06T13:43:07;0.88;;;0.50;;
72728;SDS011;60843;52.062;4.508;2024-01-06T13:45:40;1.00;;;0.70;;
72728;SDS011;60843;52.062;4.508;2024-01-06T13:48:06;0.60;;;0.40;;
72728;SDS011;60843;52.062;4.508;2024-01-06T13:50:32;2.00;;;0.88;;
72728;SDS011;60843;52.062;4.508;2024-01-06T13:52:57;2.08;;;0.63;;
72728;SDS011;60843;52.062;4.508;2024-01-06T13:55:23;3.33;;;1.10;;
72728;SDS011;60843;52.062;4.508;2024-01-06T13:57:49;2.97;;;1.00;;
72728;SDS011;60843;52.062;4.508;2024-01-06T14:00:14;7.30;;;0.95;;
72728;SDS011;60843;52.062;4.508;2024-01-06T14:02:43;2.08;;;1.17;;
72728;SDS011;60843;52.062;4.508;2024-01-06T14:05:10;2.58;;;1.27;;
72728;SDS011;60843;52.062;4.508;2024-01-06T14:07:36;0.85;;;0.57;;
72728;SDS011;60843;52.062;4.508;2024-01-06T14:10:03;2.92;;;1.10;;
72728;SDS011;60843;52.062;4.508;2024-01-06T14:12:30;2.67;;;1.05;;
72728;SDS011;60843;52.062;4.508;2024-01-06T14:14:56;1.77;;;0.77;;
72728;SDS011;60843;52.062;4.508;2024-01-06T14:17:22;1.40;;;0.68;;
72728;SDS011;60843;52.062;4.508;2024-01-06T14:19:47;2.65;;;0.60;;
72728;SDS011;60843;52.062;4.508;2024-01-06T14:22:13;2.55;;;1.20;;
72728;SDS011;60843;52.062;4.508;2024-01-06T14:24:39;2.63;;;1.23;;
72728;SDS011;60843;52.062;4.508;2024-01-06T14:27:05;4.25;;;1.15;;
72728;SDS011;60843;52.062;4.508;2024-01-06T14:29:30;2.20;;;1.00;;
72728;SDS011;60843;52.062;4.508;2024-01-06T14:31:56;1.58;;;0.90;;
72728;SDS011;60843;52.062;4.508;2024-01-06T14:34:22;1.88;;;0.95;;
72728;SDS011;60843;52.062;4.508;2024-01-06T14:36:48;5.07;;;1.10;;
72728;SDS011;60843;52.062;4.508;2024-01-06T14:39:14;2.53;;;1.13;;
72728;SDS011;60843;52.062;4.508;2024-01-06T14:41:39;1.65;;;1.05;;
72728;SDS011;60843;52.062;4.508;2024-01-06T14:44:06;2.80;;;1.30;;